Time;durP1;ratioP1;P1;durP2;ratioP2;P2;SDS_P1;SDS_P2;PMS_P1;PMS_P2;Temp;Humidity;BMP_temperature;BMP_pressure;BME280_temperature;BME280_humidity;BME280_pressure;Samples;Min_cycle;Max_cycle;Signal;HPM_P1;HPM_P2
2023/05/10 00:01:00;;;;;;;9.82;5.50;;;;;;;9.43;48.65;98682.38;4971565;28;20035;-69
2023/05/10 00:03:26;;;;;;;9.63;5.28;;;;;;;9.39;49.06;98673.94;4972307;28;20075;-69
2023/05/10 00:05:51;;;;;;;11.52;6.30;;;;;;;9.35;49.08;98668.22;4971941;28;20030;-69
2023/05/10 00:08:17;;;;;;;8.25;5.60;;;;;;;9.37;48.67;98676.13;4971574;28;20059;-69
2023/05/10 00:10:42;;;;;;;9.30;5.85;;;;;;;9.36;48.62;98669.84;4971556;28;20477;-70
2023/05/10 00:13:08;;;;;;;7.53;5.45;;;;;;;9.34;48.87;98669.31;4971441;28;20062;-70
2023/05/10 00:15:34;;;;;;;8.38;5.57;;;;;;;9.32;48.37;98666.03;4971856;28;20105;-70
2023/05/10 00:18:00;;;;;;;8.38;5.30;;;;;;;9.28;49.27;98662.22;4968999;28;20102;-70
2023/05/10 00:20:25;;;;;;;11.73;5.93;;;;;;;9.27;48.77;98665.22;4971630;28;20163;-70
2023/05/10 00:22:51;;;;;;;12.07;6.13;;;;;;;9.23;48.49;98660.31;4971489;28;20050;-69
2023/05/10 00:25:16;;;;;;;11.82;6.20;;;;;;;9.22;48.83;98666.09;4971651;28;20030;-70
2023/05/10 00:27:41;;;;;;;9.35;5.95;;;;;;;9.20;48.75;98663.63;4971412;28;20033;-69
2023/05/10 00:30:07;;;;;;;8.38;5.53;;;;;;;9.16;48.77;98662.56;4971570;28;20027;-69
2023/05/10 00:32:33;;;;;;;9.70;5.57;;;;;;;9.12;48.90;98657.94;4971938;28;20492;-70
2023/05/10 00:34:58;;;;;;;10.43;6.32;;;;;;;9.08;49.35;98660.44;4971679;28;20542;-69
2023/05/10 00:37:23;;;;;;;9.38;5.53;;;;;;;9.00;49.52;98656.34;4972172;28;20023;-69
2023/05/10 00:39:49;;;;;;;10.77;5.90;;;;;;;8.98;49.25;98663.19;4972403;28;20476;-69
2023/05/10 00:42:14;;;;;;;8.50;5.43;;;;;;;8.91;49.44;98653.38;4972226;28;20118;-69
2023/05/10 00:44:40;;;;;;;9.27;5.40;;;;;;;8.87;49.65;98656.97;4972457;28;20387;-69
2023/05/10 00:47:05;;;;;;;9.23;5.40;;;;;;;8.83;49.69;98653.94;4972189;28;20100;-69
2023/05/10 00:49:31;;;;;;;8.15;4.88;;;;;;;8.79;49.57;98661.91;4961538;28;20034;-70
2023/05/10 00:51:56;;;;;;;7.28;5.07;;;;;;;8.76;50.06;98650.72;4972234;28;20106;-69
2023/05/10 00:54:22;;;;;;;9.98;5.28;;;;;;;8.74;49.56;98650.19;4971490;28;20023;-69
2023/05/10 00:56:49;;;;;;;10.27;5.57;;;;;;;8.73;49.68;98645.81;4971362;28;20058;-69
2023/05/10 00:59:18;;;;;;;9.18;5.88;;;;;;;8.70;50.06;98649.09;4971392;28;20540;-69
2023/05/10 01:01:45;;;;;;;9.30;6.20;;;;;;;8.70;50.21;98652.63;4971451;28;20114;-70
2023/05/10 01:04:13;;;;;;;9.73;5.30;;;;;;;8.67;50.26;98647.72;4971096;28;20030;-70
2023/05/10 01:06:42;;;;;;;8.02;5.82;;;;;;;8.66;50.06;98637.09;4971290;28;20492;-71
2023/05/10 01:09:08;;;;;;;7.22;4.93;;;;;;;8.62;49.83;98642.28;4971418;28;20027;-69
2023/05/10 01:11:36;;;;;;;9.05;5.68;;;;;;;8.59;49.77;98640.94;4971083;28;20499;-70
2023/05/10 01:14:02;;;;;;;8.90;5.60;;;;;;;8.58;50.39;98646.66;4970833;28;20050;-69
2023/05/10 01:16:32;;;;;;;8.57;5.88;;;;;;;8.55;50.42;98641.78;4971021;28;20164;-70
2023/05/10 01:18:57;;;;;;;10.88;5.93;;;;;;;8.54;50.16;98640.13;4971474;28;20076;-70
2023/05/10 01:21:45;;;;;;;10.77;6.20;;;;;;;8.51;50.09;98629.75;4971198;28;20427;-69
2023/05/10 01:24:32;;;;;;;9.15;5.65;;;;;;;8.48;50.56;98629.22;4970788;28;20488;-70
2023/05/10 01:27:06;;;;;;;7.68;5.72;;;;;;;8.47;50.66;98623.97;4971141;28;20019;-69
2023/05/10 01:30:19;;;;;;;10.40;6.00;;;;;;;8.44;50.38;98627.25;4971087;28;20038;-69
2023/05/10 01:32:45;;;;;;;11.80;6.15;;;;;;;8.44;50.79;98630.00;4971167;28;20037;-70
2023/05/10 01:35:25;;;;;;;8.93;6.22;;;;;;;8.38;50.76;98623.75;4971117;28;20038;-69
2023/05/10 01:38:06;;;;;;;8.60;5.40;;;;;;;8.37;50.39;98627.56;4970054;28;20030;-70
2023/05/10 01:40:33;;;;;;;11.18;5.57;;;;;;;8.32;50.80;98625.69;5031602;28;20086;-69
2023/05/10 01:43:07;;;;;;;9.38;6.03;;;;;;;8.29;50.63;98623.50;5072229;28;20025;-70
2023/05/10 01:45:50;;;;;;;8.95;5.68;;;;;;;8.24;50.96;98620.78;5072109;28;20039;-69
2023/05/10 01:48:19;;;;;;;9.07;5.78;;;;;;;8.24;50.52;98619.94;5072064;28;20024;-69
2023/05/10 01:50:46;;;;;;;10.10;6.20;;;;;;;8.22;51.18;98616.66;5072260;28;20043;-69
2023/05/10 01:53:13;;;;;;;9.68;5.97;;;;;;;8.19;50.68;98618.06;5072390;28;20047;-69
2023/05/10 01:55:50;;;;;;;9.07;6.07;;;;;;;8.15;50.85;98617.75;5072059;28;20028;-69
2023/05/10 01:58:30;;;;;;;9.18;6.05;;;;;;;8.14;51.30;98612.59;5072308;28;20028;-69
2023/05/10 02:00:58;;;;;;;8.07;6.07;;;;;;;8.15;50.92;98611.50;5053920;28;20112;-69
2023/05/10 02:03:26;;;;;;;8.05;5.53;;;;;;;8.13;51.36;98614.53;5071980;28;20028;-69
2023/05/10 02:05:54;;;;;;;10.13;5.53;;;;;;;8.12;51.46;98612.06;5071886;28;20029;-70
2023/05/10 02:08:21;;;;;;;8.32;5.40;;;;;;;8.11;51.20;98616.72;5071715;28;20540;-70
2023/05/10 02:10:49;;;;;;;10.75;5.80;;;;;;;8.11;51.37;98613.97;5071831;28;20112;-69
2023/05/10 02:13:16;;;;;;;9.25;5.70;;;;;;;8.11;51.59;98613.13;5071502;28;20556;-70
2023/05/10 02:15:43;;;;;;;9.40;5.68;;;;;;;8.11;51.56;98610.41;5071794;28;20027;-69
2023/05/10 02:18:10;;;;;;;10.38;5.50;;;;;;;8.09;51.68;98602.50;5071750;28;20032;-69
2023/05/10 02:20:37;;;;;;;9.68;5.68;;;;;;;8.07;52.03;98604.69;5071756;28;20056;-69
2023/05/10 02:23:04;;;;;;;8.48;5.68;;;;;;;8.05;51.70;98601.41;5071771;28;20025;-69
2023/05/10 02:25:31;;;;;;;8.90;5.60;;;;;;;8.02;51.63;98607.44;5071639;28;20035;-69
2023/05/10 02:28:01;;;;;;;8.55;5.80;;;;;;;8.00;51.55;98598.69;5071726;28;20073;-69
2023/05/10 02:30:28;;;;;;;8.50;5.63;;;;;;;7.99;51.79;98597.06;5071692;28;20032;-69
2023/05/10 02:32:54;;;;;;;9.75;5.55;;;;;;;7.98;51.83;98601.69;5071638;28;20024;-69
2023/05/10 02:35:21;;;;;;;9.02;5.72;;;;;;;7.98;51.95;98601.69;5071816;28;20466;-69
2023/05/10 02:37:48;;;;;;;8.60;5.82;;;;;;;7.96;51.88;98608.53;5071953;28;20036;-69
2023/05/10 02:40:17;;;;;;;11.38;6.07;;;;;;;7.94;51.86;98602.53;5071586;28;20025;-70
2023/05/10 02:42:44;;;;;;;9.43;5.60;;;;;;;7.93;52.26;98606.34;5071280;28;20032;-69
2023/05/10 02:45:14;;;;;;;10.88;5.38;;;;;;;7.95;52.00;98609.63;5071656;28;20029;-70
2023/05/10 02:47:40;;;;;;;9.98;5.20;;;;;;;7.95;52.07;98599.50;4967821;28;20113;-70
2023/05/10 02:50:06;;;;;;;8.48;5.60;;;;;;;7.97;52.35;98602.78;4972391;28;20161;-69
2023/05/10 02:52:40;;;;;;;7.68;5.68;;;;;;;8.00;52.06;98604.16;4973182;28;20120;-69
2023/05/10 02:55:09;;;;;;;7.07;5.30;;;;;;;8.00;51.80;98602.22;4973243;28;20107;-69
2023/05/10 02:57:38;;;;;;;11.18;6.22;;;;;;;8.02;51.93;98601.97;4973142;28;20026;-69
2023/05/10 03:00:04;;;;;;;9.85;5.95;;;;;;;8.01;52.13;98603.88;5048539;28;20035;-69
2023/05/10 03:02:30;;;;;;;8.40;5.90;;;;;;;7.99;52.26;98599.78;5075021;28;20033;-70
2023/05/10 03:04:56;;;;;;;9.70;6.32;;;;;;;7.98;52.27;98604.41;5074955;28;20359;-69
2023/05/10 03:07:22;;;;;;;9.55;6.10;;;;;;;7.97;51.82;98612.91;5057021;28;20025;-69
2023/05/10 03:09:50;;;;;;;9.57;6.00;;;;;;;7.95;52.17;98604.16;5074996;28;20023;-69
2023/05/10 03:12:40;;;;;;;9.88;6.10;;;;;;;7.94;52.04;98613.44;5074717;28;20086;-69
2023/05/10 03:15:37;;;;;;;7.90;5.63;;;;;;;7.89;51.94;98611.56;5074836;28;20041;-69
2023/05/10 03:18:12;;;;;;;9.88;5.70;;;;;;;7.90;52.34;98615.91;5074559;28;20025;-69
2023/05/10 03:20:49;;;;;;;8.38;6.10;;;;;;;7.89;52.26;98600.63;5074510;28;20033;-69
2023/05/10 03:23:17;;;;;;;9.00;5.90;;;;;;;7.88;52.25;98610.72;5074530;28;20108;-69
2023/05/10 03:25:43;;;;;;;9.60;6.18;;;;;;;7.87;52.42;98606.34;5074695;28;20027;-69
2023/05/10 03:28:09;;;;;;;8.80;5.43;;;;;;;7.86;52.49;98609.38;5074827;28;20024;-69
2023/05/10 03:30:35;;;;;;;9.07;5.40;;;;;;;7.86;52.44;98607.44;5074485;28;20025;-69
2023/05/10 03:33:06;;;;;;;7.47;5.15;;;;;;;7.85;52.43;98603.06;5074525;28;20422;-70
2023/05/10 03:35:32;;;;;;;8.90;5.75;;;;;;;7.85;52.75;98600.34;5074502;28;20101;-69
2023/05/10 03:37:58;;;;;;;9.10;5.65;;;;;;;7.85;52.34;98599.53;5074144;28;20112;-69
2023/05/10 03:40:24;;;;;;;9.00;5.65;;;;;;;7.86;52.33;98604.72;5074309;28;20433;-69
2023/05/10 03:42:49;;;;;;;8.70;4.97;;;;;;;7.86;52.52;98593.78;5073968;28;20086;-70
2023/05/10 03:45:15;;;;;;;7.80;5.85;;;;;;;7.84;52.88;98586.97;5074794;28;20032;-69
2023/05/10 03:47:40;;;;;;;8.95;5.78;;;;;;;7.85;52.83;98591.34;5075167;28;20021;-69
2023/05/10 03:50:07;;;;;;;7.85;5.72;;;;;;;7.88;53.05;98588.06;5075081;28;20108;-69
2023/05/10 03:52:32;;;;;;;10.98;6.20;;;;;;;7.86;52.87;98593.78;5075103;28;20038;-69
2023/05/10 03:54:57;;;;;;;10.18;5.63;;;;;;;7.86;52.82;98593.78;4979043;28;20035;-71
2023/05/10 03:57:23;;;;;;;9.77;6.13;;;;;;;7.84;52.81;98600.63;4972552;28;20038;-69
2023/05/10 03:59:48;;;;;;;10.35;6.00;;;;;;;7.82;52.92;98591.88;4972211;28;20035;-69
2023/05/10 04:02:13;;;;;;;10.75;6.05;;;;;;;7.84;52.76;98589.72;4971349;28;20392;-69
2023/05/10 04:04:39;;;;;;;9.77;6.28;;;;;;;7.81;53.09;98591.06;4972163;28;20027;-69
2023/05/10 04:07:04;;;;;;;10.77;6.40;;;;;;;7.80;52.98;98599.53;4972060;28;20381;-69
2023/05/10 04:09:29;;;;;;;11.25;7.13;;;;;;;7.79;53.51;98589.72;4972151;28;20035;-71
2023/05/10 04:11:55;;;;;;;11.38;6.38;;;;;;;7.80;53.24;98596.81;4971975;28;20042;-69
2023/05/10 04:14:20;;;;;;;12.10;7.32;;;;;;;7.81;53.24;98595.72;4971565;28;20082;-69
2023/05/10 04:16:46;;;;;;;10.18;7.28;;;;;;;7.82;53.61;98591.88;4972244;28;20084;-69
2023/05/10 04:19:11;;;;;;;13.77;8.52;;;;;;;7.84;53.73;98589.72;4971965;28;20076;-69
2023/05/10 04:21:36;;;;;;;14.55;8.85;;;;;;;7.86;53.59;98585.59;4971906;28;20058;-69
2023/05/10 04:24:02;;;;;;;14.68;9.02;;;;;;;7.87;53.57;98586.44;4972099;28;20061;-70
2023/05/10 04:26:27;;;;;;;17.45;10.77;;;;;;;7.88;53.50;98591.59;4972069;28;20418;-69
2023/05/10 04:28:53;;;;;;;12.93;8.80;;;;;;;7.90;53.85;98594.06;4972035;28;20445;-69
2023/05/10 04:31:18;;;;;;;10.60;7.45;;;;;;;7.91;53.87;98592.97;4968127;28;20023;-69
2023/05/10 04:33:43;;;;;;;10.45;6.30;;;;;;;7.95;54.21;98599.50;5006349;28;20119;-69
2023/05/10 04:36:09;;;;;;;9.55;6.60;;;;;;;8.00;54.04;98595.97;4981031;28;20115;-70
2023/05/10 04:38:34;;;;;;;11.60;5.93;;;;;;;8.03;54.20;98590.75;4970799;28;20030;-69
2023/05/10 04:41:10;;;;;;;9.68;6.05;;;;;;;8.08;54.09;98598.13;4970436;28;20031;-70
2023/05/10 04:43:37;;;;;;;10.27;6.43;;;;;;;8.14;54.50;98594.31;4971502;28;20030;-70
2023/05/10 04:46:03;;;;;;;11.07;6.35;;;;;;;8.20;54.45;98604.09;4971513;28;20654;-68
2023/05/10 04:48:28;;;;;;;9.60;5.90;;;;;;;8.26;54.24;98595.88;4971461;28;20121;-69
2023/05/10 04:50:53;;;;;;;10.20;6.00;;;;;;;8.31;54.35;98595.88;4971143;28;20034;-67
2023/05/10 04:53:19;;;;;;;11.18;6.10;;;;;;;8.35;54.55;98589.56;4981217;28;20061;-67
2023/05/10 04:55:45;;;;;;;7.65;5.22;;;;;;;8.38;54.46;98592.84;5072862;28;20040;-67
2023/05/10 04:58:10;;;;;;;8.63;6.03;;;;;;;8.44;54.30;98597.19;5072406;28;20024;-67
2023/05/10 05:00:36;;;;;;;9.57;5.68;;;;;;;8.48;54.53;98593.69;5072795;28;20037;-68
2023/05/10 05:03:01;;;;;;;10.35;6.13;;;;;;;8.55;54.78;98598.03;5072729;28;20083;-67
2023/05/10 05:05:26;;;;;;;9.80;6.15;;;;;;;8.61;54.58;98602.34;4982731;28;20062;-67
2023/05/10 05:07:52;;;;;;;11.35;6.88;;;;;;;8.68;54.48;98602.06;4971067;28;20084;-67
2023/05/10 05:10:17;;;;;;;11.68;6.57;;;;;;;8.75;54.27;98592.47;4971140;28;20045;-68
2023/05/10 05:12:43;;;;;;;9.05;5.32;;;;;;;8.82;54.61;98592.16;4969738;28;20126;-68
2023/05/10 05:15:09;;;;;;;9.82;5.65;;;;;;;8.89;54.58;98589.94;4970872;28;20038;-68
2023/05/10 05:17:35;;;;;;;9.38;5.47;;;;;;;8.97;54.29;98596.72;4971016;28;20030;-67
2023/05/10 05:20:01;;;;;;;7.57;5.10;;;;;;;9.05;54.35;98592.59;4970707;28;20035;-68
2023/05/10 05:22:27;;;;;;;8.27;5.50;;;;;;;9.12;54.41;98595.00;4970850;28;20031;-68
2023/05/10 05:24:57;;;;;;;7.18;5.40;;;;;;;9.21;54.04;98594.09;4971128;28;20157;-67
2023/05/10 05:27:25;;;;;;;8.50;5.18;;;;;;;9.29;54.29;98584.50;4971199;28;20419;-67
2023/05/10 05:29:53;;;;;;;8.15;5.28;;;;;;;9.36;54.55;98592.38;5050265;28;20052;-67
2023/05/10 05:32:19;;;;;;;8.18;5.60;;;;;;;9.43;54.40;98587.41;5072380;28;20025;-67
2023/05/10 05:34:45;;;;;;;9.73;5.32;;;;;;;9.54;54.28;98585.38;5072330;28;20506;-67
2023/05/10 05:37:17;;;;;;;8.30;5.35;;;;;;;9.63;54.45;98589.16;5037590;28;20043;-67
2023/05/10 05:39:45;;;;;;;9.13;5.78;;;;;;;9.72;54.03;98589.34;5072394;28;20012;-67
2023/05/10 05:42:11;;;;;;;7.80;5.10;;;;;;;9.81;54.20;98584.06;5072125;28;20036;-67
2023/05/10 05:44:37;;;;;;;10.93;5.97;;;;;;;9.92;54.03;98593.81;5071902;28;20028;-68
2023/05/10 05:47:03;;;;;;;8.90;5.30;;;;;;;10.02;54.06;98592.09;5071987;28;20360;-68
2023/05/10 05:49:28;;;;;;;10.05;6.00;;;;;;;10.09;54.18;98585.16;5072195;28;20095;-69
2023/05/10 05:51:54;;;;;;;8.07;5.22;;;;;;;10.19;54.16;98588.91;5071709;28;20039;-68
2023/05/10 05:54:19;;;;;;;16.83;5.82;;;;;;;10.27;53.57;98580.84;5071999;28;20419;-69
2023/05/10 05:56:45;;;;;;;8.57;5.00;;;;;;;10.37;53.46;98585.44;5072043;28;20028;-69
2023/05/10 05:59:11;;;;;;;7.72;4.97;;;;;;;10.45;53.97;98581.25;5054399;28;20044;-68
2023/05/10 06:01:36;;;;;;;8.95;5.13;;;;;;;10.53;53.58;98577.03;5071798;28;20067;-68
2023/05/10 06:04:02;;;;;;;10.45;5.18;;;;;;;10.62;53.85;98580.75;5071748;28;20055;-69
2023/05/10 06:06:28;;;;;;;6.90;4.60;;;;;;;10.69;54.01;98581.22;5071814;28;20020;-69
2023/05/10 06:08:53;;;;;;;7.88;4.20;;;;;;;10.80;53.41;98578.34;5071939;28;20833;-69
2023/05/10 06:11:20;;;;;;;10.00;5.13;;;;;;;10.89;54.20;98587.53;4980594;28;20066;-69
2023/05/10 06:13:45;;;;;;;6.57;4.65;;;;;;;10.96;53.09;98585.25;4970139;28;20051;-69
2023/05/10 06:16:11;;;;;;;7.32;4.72;;;;;;;11.06;53.51;98588.97;4970194;28;20473;-69
2023/05/10 06:18:36;;;;;;;6.18;4.40;;;;;;;11.14;53.71;98583.63;4970342;28;20031;-68
2023/05/10 06:21:02;;;;;;;7.32;4.85;;;;;;;11.23;53.68;98577.47;4970099;28;20030;-69
2023/05/10 06:23:27;;;;;;;10.43;4.25;;;;;;;11.31;53.23;98579.53;4970175;28;20023;-69
2023/05/10 06:25:52;;;;;;;7.07;4.13;;;;;;;11.42;52.90;98585.69;5048220;28;20021;-69
2023/05/10 06:28:18;;;;;;;5.65;3.90;;;;;;;11.52;52.55;98582.78;5055918;28;20025;-69
2023/05/10 06:30:44;;;;;;;6.70;4.32;;;;;;;11.61;53.24;98583.72;5055533;28;20497;-69
2023/05/10 06:33:09;;;;;;;6.85;4.20;;;;;;;11.72;52.83;98578.88;5055471;28;20029;-69
2023/05/10 06:35:35;;;;;;;6.30;4.38;;;;;;;11.85;52.70;98591.03;5055719;28;20424;-68
2023/05/10 06:38:00;;;;;;;8.48;4.80;;;;;;;11.96;52.74;98575.16;5055365;28;20438;-69
2023/05/10 06:40:26;;;;;;;7.18;4.53;;;;;;;12.06;52.86;98574.19;5020902;28;20124;-68
2023/05/10 06:42:51;;;;;;;7.10;4.70;;;;;;;12.17;52.99;98583.06;4971891;28;20046;-68
2023/05/10 06:45:17;;;;;;;8.57;4.35;;;;;;;12.28;52.91;98572.69;5032459;28;20557;-69
2023/05/10 06:47:43;;;;;;;13.45;4.88;;;;;;;12.38;52.55;98578.00;5075338;28;20017;-69
2023/05/10 06:50:11;;;;;;;7.00;4.70;;;;;;;12.50;52.78;98575.53;5075225;28;20020;-68
2023/05/10 06:52:37;;;;;;;8.93;3.88;;;;;;;12.63;52.21;98573.09;5075432;28;20047;-68
2023/05/10 06:55:03;;;;;;;6.40;4.28;;;;;;;12.72;52.33;98571.25;5075372;28;20021;-68
2023/05/10 06:57:29;;;;;;;7.72;3.60;;;;;;;12.79;52.35;98568.91;5075163;28;20152;-68
2023/05/10 06:59:55;;;;;;;5.32;3.40;;;;;;;12.91;52.15;98568.38;5075064;28;20535;-68
2023/05/10 07:02:21;;;;;;;9.77;3.67;;;;;;;13.00;52.14;98571.19;5075104;28;20065;-69
2023/05/10 07:04:47;;;;;;;7.15;4.05;;;;;;;13.07;51.94;98571.59;5074783;28;20427;-69
2023/05/10 07:07:13;;;;;;;6.63;3.72;;;;;;;13.16;51.56;98568.09;5075194;28;20029;-68
2023/05/10 07:09:39;;;;;;;6.75;3.88;;;;;;;13.25;51.51;98563.47;5074930;28;20028;-69
2023/05/10 07:12:04;;;;;;;4.40;3.55;;;;;;;13.32;51.41;98560.28;5074786;28;20032;-69
2023/05/10 07:14:30;;;;;;;5.90;3.20;;;;;;;13.42;51.36;98562.84;5074711;28;20083;-68
2023/05/10 07:16:55;;;;;;;5.72;3.25;;;;;;;13.52;51.36;98556.25;5074720;28;20065;-69
2023/05/10 07:19:21;;;;;;;5.03;3.08;;;;;;;13.64;51.41;98553.75;5074541;28;20042;-68
2023/05/10 07:21:47;;;;;;;6.63;3.00;;;;;;;13.77;50.91;98556.72;5013252;28;20027;-69
2023/05/10 07:24:12;;;;;;;4.20;3.08;;;;;;;13.90;50.97;98555.00;4971717;28;20038;-68
2023/05/10 07:26:38;;;;;;;4.90;3.28;;;;;;;14.00;50.75;98560.25;4971936;28;20022;-68
2023/05/10 07:29:03;;;;;;;3.97;2.70;;;;;;;14.09;50.63;98555.63;4970104;28;20492;-68
2023/05/10 07:31:29;;;;;;;4.10;2.40;;;;;;;14.18;50.42;98547.38;4968075;28;20092;-70
2023/05/10 07:33:54;;;;;;;4.40;2.47;;;;;;;14.27;50.17;98552.91;4973425;28;20038;-68
2023/05/10 07:36:20;;;;;;;4.00;2.80;;;;;;;14.36;49.88;98547.44;4970243;28;20027;-68
2023/05/10 07:38:45;;;;;;;4.63;2.50;;;;;;;14.44;50.19;98553.00;4968346;28;20119;-67
2023/05/10 07:41:12;;;;;;;3.72;2.28;;;;;;;14.50;49.92;98550.88;4974550;28;20477;-68
2023/05/10 07:43:37;;;;;;;4.22;3.03;;;;;;;14.59;49.62;98545.41;4984647;28;20035;-68
2023/05/10 07:46:03;;;;;;;3.17;2.28;;;;;;;14.68;49.75;98546.22;5009115;28;20031;-68
2023/05/10 07:48:28;;;;;;;3.42;2.03;;;;;;;14.76;49.37;98546.59;4982936;28;20026;-68
2023/05/10 07:50:56;;;;;;;5.70;2.28;;;;;;;14.82;48.78;98545.31;4973280;28;20069;-68
2023/05/10 07:53:22;;;;;;;3.88;2.40;;;;;;;14.88;48.65;98541.25;4971450;28;20023;-68
2023/05/10 07:55:51;;;;;;;5.05;2.03;;;;;;;14.94;48.79;98539.16;4990768;28;20038;-69
2023/05/10 07:58:17;;;;;;;4.53;1.90;;;;;;;14.99;48.21;98552.81;4968110;28;20034;-71
2023/05/10 08:00:42;;;;;;;2.65;1.90;;;;;;;15.06;48.00;98544.06;4971292;28;20035;-72
2023/05/10 08:03:08;;;;;;;2.63;1.85;;;;;;;15.13;47.86;98549.88;4970341;28;20038;-72
2023/05/10 08:05:33;;;;;;;2.65;2.15;;;;;;;15.21;48.28;98543.56;4971868;28;20084;-70
2023/05/10 08:07:59;;;;;;;2.83;2.30;;;;;;;15.32;48.22;98546.78;4971534;28;20026;-72
2023/05/10 08:10:25;;;;;;;2.90;2.08;;;;;;;15.41;47.87;98541.28;4979348;28;20024;-72
2023/05/10 08:12:50;;;;;;;3.60;2.15;;;;;;;15.51;48.01;98540.13;4969610;28;20057;-72
2023/05/10 08:15:16;;;;;;;2.47;2.00;;;;;;;15.60;47.75;98538.97;4984499;28;20045;-70
2023/05/10 08:17:42;;;;;;;3.67;2.10;;;;;;;15.70;47.41;98537.81;4970751;28;20455;-71
2023/05/10 08:20:08;;;;;;;2.45;1.92;;;;;;;15.81;47.75;98538.28;4973255;28;20121;-70
2023/05/10 08:22:33;;;;;;;4.00;2.00;;;;;;;15.90;47.41;98538.28;4976964;28;20130;-72
2023/05/10 08:24:59;;;;;;;3.13;1.88;;;;;;;15.98;47.14;98548.53;4970370;28;20117;-71
2023/05/10 08:27:24;;;;;;;3.75;1.90;;;;;;;16.03;46.69;98542.81;4968804;28;20027;-72
2023/05/10 08:29:49;;;;;;;4.30;1.98;;;;;;;16.14;47.03;98543.25;4977466;28;20517;-73
2023/05/10 08:32:15;;;;;;;2.60;1.98;;;;;;;16.22;46.52;98530.53;4969925;28;20031;-73
2023/05/10 08:34:40;;;;;;;3.90;2.20;;;;;;;16.29;46.51;98541.88;4968419;28;20054;-71
2023/05/10 08:37:06;;;;;;;4.05;2.20;;;;;;;16.35;46.41;98543.34;4971019;28;20049;-68
2023/05/10 08:39:34;;;;;;;4.43;2.28;;;;;;;16.40;46.64;98536.00;4970566;28;20023;-69
2023/05/10 08:42:02;;;;;;;2.78;2.10;;;;;;;16.46;46.06;98535.47;4989131;28;20047;-68
2023/05/10 08:44:28;;;;;;;4.28;2.45;;;;;;;16.54;46.51;98547.63;4981847;28;20029;-68
2023/05/10 08:46:54;;;;;;;2.53;2.08;;;;;;;16.58;45.57;98545.81;4974949;28;20043;-71
2023/05/10 08:49:20;;;;;;;4.43;2.20;;;;;;;16.58;45.51;98539.47;4968965;28;20031;-70
2023/05/10 08:51:52;;;;;;;3.20;2.20;;;;;;;16.58;45.68;98536.72;4970254;28;20034;-69
2023/05/10 08:54:17;;;;;;;5.90;2.40;;;;;;;16.63;45.58;98540.09;4970848;28;20473;-70
2023/05/10 08:56:44;;;;;;;3.92;2.42;;;;;;;16.70;45.49;98539.56;4985893;28;20110;-70
2023/05/10 08:59:09;;;;;;;3.08;2.30;;;;;;;16.77;45.67;98539.84;4970681;28;20061;-69
2023/05/10 09:01:36;;;;;;;3.88;2.63;;;;;;;16.84;45.44;98544.03;4970795;28;20066;-70
2023/05/10 09:04:04;;;;;;;4.63;2.10;;;;;;;16.88;44.70;98536.69;4972858;28;20034;-70
2023/05/10 09:06:29;;;;;;;3.08;2.50;;;;;;;16.93;45.24;98530.94;4980118;28;20049;-69
2023/05/10 09:08:55;;;;;;;6.38;2.38;;;;;;;17.00;45.12;98530.41;4969398;28;20392;-70
2023/05/10 09:11:21;;;;;;;2.40;2.10;;;;;;;17.03;44.90;98532.53;4990431;28;20092;-69
2023/05/10 09:13:48;;;;;;;2.63;2.20;;;;;;;17.05;45.10;98531.06;4970250;28;20054;-70
2023/05/10 09:16:13;;;;;;;2.63;2.30;;;;;;;17.12;44.76;98527.72;4990245;28;20088;-69
2023/05/10 09:18:38;;;;;;;5.88;2.40;;;;;;;17.20;45.30;98529.63;4970570;28;20031;-71
2023/05/10 09:21:04;;;;;;;4.10;2.35;;;;;;;17.27;45.26;98529.06;4990158;28;20024;-70
2023/05/10 09:23:32;;;;;;;3.60;2.00;;;;;;;17.36;45.16;98528.97;4969837;28;20480;-69
2023/05/10 09:26:07;;;;;;;3.67;2.28;;;;;;;17.45;45.22;98531.69;4970235;28;20062;-70
2023/05/10 09:28:58;;;;;;;3.30;2.22;;;;;;;17.49;44.41;98529.88;4970359;28;20037;-70
2023/05/10 09:31:26;;;;;;;4.32;2.05;;;;;;;17.50;44.17;98528.72;4971222;28;20062;-70
2023/05/10 09:33:53;;;;;;;5.20;2.53;;;;;;;17.51;44.21;98525.59;4970078;28;20384;-70
2023/05/10 09:36:18;;;;;;;3.63;2.17;;;;;;;17.55;43.79;98532.06;4969688;28;20033;-69
2023/05/10 09:38:52;;;;;;;2.85;2.30;;;;;;;17.60;44.11;98527.47;4969958;28;20026;-70
2023/05/10 09:41:24;;;;;;;4.05;2.25;;;;;;;17.65;43.98;98522.50;4969913;28;20039;-69
2023/05/10 09:43:55;;;;;;;2.95;2.25;;;;;;;17.74;44.28;98530.72;4969735;28;20054;-69
2023/05/10 09:46:25;;;;;;;5.13;2.33;;;;;;;17.84;43.94;98529.50;4970065;28;20023;-70
2023/05/10 09:48:51;;;;;;;3.47;2.22;;;;;;;17.88;43.66;98527.66;4970264;28;20118;-70
2023/05/10 09:51:26;;;;;;;3.30;2.20;;;;;;;17.91;43.30;98528.94;4970081;28;20102;-70
2023/05/10 09:54:16;;;;;;;3.80;2.30;;;;;;;17.91;42.59;98515.88;4970208;28;20034;-70
2023/05/10 09:56:42;;;;;;;4.57;2.40;;;;;;;17.94;42.81;98525.47;4970395;28;20026;-69
2023/05/10 09:59:10;;;;;;;2.53;2.33;;;;;;;18.01;42.91;98514.66;4972432;28;20051;-70
2023/05/10 10:01:36;;;;;;;5.15;2.20;;;;;;;18.04;43.20;98516.75;4976883;28;20057;-70
2023/05/10 10:04:06;;;;;;;2.95;2.33;;;;;;;18.09;43.19;98510.97;4975586;28;20043;-70
2023/05/10 10:06:40;;;;;;;3.42;2.30;;;;;;;18.18;43.33;98507.25;4974766;28;20111;-71
2023/05/10 10:09:06;;;;;;;3.25;2.25;;;;;;;18.25;43.29;98508.31;4976109;28;20027;-70
2023/05/10 10:11:36;;;;;;;4.32;2.40;;;;;;;18.36;43.70;98502.28;4976773;28;20026;-69
2023/05/10 10:14:01;;;;;;;3.55;2.60;;;;;;;18.51;43.43;98501.59;4975579;28;20139;-70
2023/05/10 10:16:29;;;;;;;4.45;2.58;;;;;;;18.58;43.32;98506.56;4976789;28;20054;-69
2023/05/10 10:18:55;;;;;;;4.25;2.20;;;;;;;18.63;43.13;98497.19;4975910;28;20022;-69
2023/05/10 10:21:22;;;;;;;3.60;2.20;;;;;;;18.68;42.97;98494.97;4976373;28;20509;-71
2023/05/10 10:23:47;;;;;;;3.00;2.35;;;;;;;18.75;43.24;98489.63;4976373;28;20062;-69
2023/05/10 10:26:14;;;;;;;2.92;2.35;;;;;;;18.87;43.36;98499.91;4976785;28;20054;-70
2023/05/10 10:29:16;;;;;;;3.35;2.35;;;;;;;18.92;42.78;98490.53;4976186;28;20084;-69
2023/05/10 10:31:52;;;;;;;4.00;2.55;;;;;;;18.95;42.68;98489.00;4976550;28;20031;-71
2023/05/10 10:34:26;;;;;;;4.90;2.25;;;;;;;18.99;42.83;98487.19;4976308;28;20042;-70
2023/05/10 10:36:52;;;;;;;2.40;2.20;;;;;;;19.07;42.62;98488.19;4976497;28;20054;-70
2023/05/10 10:39:19;;;;;;;2.50;2.20;;;;;;;19.14;42.36;98485.63;4975732;28;20472;-69
2023/05/10 10:41:53;;;;;;;5.10;2.15;;;;;;;19.18;42.81;98476.22;4976485;28;20033;-69
2023/05/10 10:44:21;;;;;;;4.38;2.70;;;;;;;19.26;42.20;98484.75;4976023;28;20053;-69
2023/05/10 10:46:59;;;;;;;4.90;2.20;;;;;;;19.31;42.64;98485.34;4976138;28;20038;-70
2023/05/10 10:49:25;;;;;;;3.75;2.20;;;;;;;19.41;42.56;98486.78;4976068;28;20042;-69
2023/05/10 10:52:20;;;;;;;2.90;2.30;;;;;;;19.47;42.35;98479.81;4976923;28;20267;-70
2023/05/10 10:54:56;;;;;;;2.25;2.00;;;;;;;19.58;42.15;98477.31;4976069;28;20369;-70
2023/05/10 10:57:22;;;;;;;3.63;2.00;;;;;;;19.63;42.14;98477.06;4975868;28;20061;-71
2023/05/10 10:59:47;;;;;;;2.58;1.90;;;;;;;19.61;41.49;98481.34;4975842;28;20031;-67
2023/05/10 11:02:45;;;;;;;2.05;1.85;;;;;;;19.56;41.38;98471.31;4976380;28;20039;-66
2023/05/10 11:06:03;;;;;;;2.03;1.83;;;;;;;19.51;41.09;98474.34;4975746;28;20026;-65
2023/05/10 11:08:32;;;;;;;3.88;3.30;;;;;;;19.42;40.77;98471.72;4958984;28;20057;-66
2023/05/10 11:11:03;;;;;;;4.32;2.40;;;;;;;19.32;40.55;98475.84;4973828;28;20118;-66
2023/05/10 11:13:37;;;;;;;4.20;2.47;;;;;;;19.28;40.46;98483.25;4971777;28;20513;-67
2023/05/10 11:16:14;;;;;;;4.68;2.65;;;;;;;19.23;40.55;98480.72;4972257;28;20030;-67
2023/05/10 11:18:40;;;;;;;4.63;2.30;;;;;;;19.21;40.44;98476.66;4972190;28;20046;-66
2023/05/10 11:21:11;;;;;;;4.22;2.30;;;;;;;19.20;40.58;98478.66;4971721;28;20026;-67
2023/05/10 11:23:40;;;;;;;3.90;2.40;;;;;;;19.21;40.69;98482.22;4955538;28;20048;-67
2023/05/10 11:26:09;;;;;;;2.97;2.20;;;;;;;19.18;40.21;98472.63;4972208;28;20066;-67
2023/05/10 11:28:35;;;;;;;3.83;2.60;;;;;;;19.17;40.60;98474.59;4972502;28;20042;-67
2023/05/10 11:31:00;;;;;;;4.38;2.10;;;;;;;19.20;40.71;98475.88;4971992;28;20481;-67
2023/05/10 11:33:26;;;;;;;4.97;2.10;;;;;;;19.19;40.67;98468.69;4972452;28;20038;-67
2023/05/10 11:35:51;;;;;;;4.20;2.30;;;;;;;19.17;40.43;98477.38;4971975;28;20429;-66
2023/05/10 11:38:16;;;;;;;4.18;2.40;;;;;;;19.19;40.67;98468.69;4972827;28;20041;-65
2023/05/10 11:40:43;;;;;;;3.25;2.42;;;;;;;19.21;40.59;98471.94;4971792;28;20071;-66